createdAt,value
2018-07-16T00:00:33.068Z,0
2018-07-16T00:01:33.058Z,0
2018-07-16T00:02:33.052Z,0
2018-07-16T00:03:32.793Z,0
2018-07-16T00:04:32.541Z,0
2018-07-16T00:05:33.043Z,0
2018-07-16T00:06:33.034Z,0
2018-07-16T00:07:32.529Z,0
2018-07-16T00:08:33.027Z,0
2018-07-16T00:09:33.023Z,0
2018-07-16T00:10:33.018Z,0
2018-07-16T00:11:32.782Z,0
2018-07-16T00:12:33.021Z,0
2018-07-16T00:13:33.016Z,0
2018-07-16T00:14:32.857Z,0
2018-07-16T00:15:32.746Z,0
2018-07-16T00:16:32.494Z,0
2018-07-16T00:17:32.991Z,0
2018-07-16T00:18:32.986Z,0
2018-07-16T00:19:33.004Z,0
2018-07-16T00:20:32.978Z,0
2018-07-16T00:21:32.981Z,0
2018-07-16T00:22:32.719Z,0
2018-07-16T00:23:32.719Z,0
2018-07-16T00:24:32.458Z,0
2018-07-16T00:25:32.958Z,0
2018-07-16T00:26:32.702Z,0
2018-07-16T00:27:32.969Z,0
2018-07-16T00:28:32.951Z,0
2018-07-16T00:29:32.945Z,0
2018-07-16T00:30:32.956Z,0
2018-07-16T00:31:32.948Z,0
2018-07-16T00:32:32.681Z,0
2018-07-16T00:33:32.931Z,0
2018-07-16T00:34:32.925Z,0
2018-07-16T00:35:32.669Z,0
2018-07-16T00:36:32.912Z,0
2018-07-16T00:37:32.923Z,0
2018-07-16T00:38:32.913Z,0
2018-07-16T00:39:32.395Z,0
2018-07-16T00:40:32.899Z,0
2018-07-16T00:41:32.890Z,0
2018-07-16T00:42:32.899Z,0
2018-07-16T00:43:32.378Z,0
2018-07-16T00:44:32.942Z,0
2018-07-16T00:45:32.625Z,0
2018-07-16T00:46:32.886Z,0
2018-07-16T00:47:32.871Z,0
2018-07-16T00:48:32.873Z,0
2018-07-16T00:49:32.876Z,0
2018-07-16T00:50:32.853Z,0
2018-07-16T00:51:32.597Z,0
2018-07-16T00:52:32.847Z,0
2018-07-16T00:53:32.848Z,0
2018-07-16T00:54:32.586Z,0
2018-07-16T00:55:32.832Z,0
2018-07-16T00:56:32.837Z,0
2018-07-16T00:57:32.660Z,0
2018-07-16T00:58:32.855Z,0
2018-07-16T00:59:32.820Z,0
2018-07-16T01:00:32.814Z,0
2018-07-16T01:01:32.810Z,0
2018-07-16T01:02:32.801Z,0
2018-07-16T01:03:32.796Z,0
2018-07-16T01:04:32.799Z,0
2018-07-16T01:05:32.793Z,0
2018-07-16T01:06:32.785Z,0
2018-07-16T01:07:32.779Z,0
2018-07-16T01:08:32.529Z,0
2018-07-16T01:09:32.520Z,0
2018-07-16T01:10:32.772Z,0
2018-07-16T01:11:32.768Z,0
2018-07-16T01:12:32.772Z,0
2018-07-16T01:13:32.756Z,0
2018-07-16T01:14:32.748Z,0
2018-07-16T01:15:32.748Z,0
2018-07-16T01:16:32.487Z,0
2018-07-16T01:17:32.738Z,0
2018-07-16T01:18:32.229Z,0
2018-07-16T01:19:32.475Z,0
2018-07-16T01:20:32.726Z,0
2018-07-16T01:21:32.717Z,0
2018-07-16T01:22:32.711Z,0
2018-07-16T01:23:32.709Z,0
2018-07-16T01:24:32.452Z,0
2018-07-16T01:25:32.200Z,0
2018-07-16T01:26:32.699Z,0
2018-07-16T01:27:32.687Z,0
2018-07-16T01:28:32.181Z,0
2018-07-16T01:29:32.428Z,0
2018-07-16T01:30:32.674Z,0
2018-07-16T01:31:32.417Z,0
2018-07-16T01:32:32.667Z,0
2018-07-16T01:33:32.666Z,0
2018-07-16T01:34:32.656Z,0
2018-07-16T01:35:32.652Z,0
2018-07-16T01:36:32.654Z,0
2018-07-16T01:37:32.646Z,0
2018-07-16T01:38:32.643Z,0
2018-07-16T01:39:32.389Z,0
2018-07-16T01:40:32.125Z,0
2018-07-16T01:41:32.121Z,0
2018-07-16T01:42:32.114Z,0
2018-07-16T01:43:32.366Z,0
2018-07-16T01:44:32.356Z,0
2018-07-16T01:45:32.610Z,0
2018-07-16T01:46:32.353Z,0
2018-07-16T01:47:32.347Z,0
2018-07-16T01:48:32.596Z,0
2018-07-16T01:49:32.330Z,0
2018-07-16T01:50:32.583Z,0
2018-07-16T01:51:32.322Z,0
2018-07-16T01:52:32.573Z,0
2018-07-16T01:53:32.314Z,0
2018-07-16T01:54:32.307Z,0
2018-07-16T01:55:32.308Z,0
2018-07-16T01:56:32.552Z,0
2018-07-16T01:57:32.547Z,0
2018-07-16T01:58:32.543Z,0
2018-07-16T01:59:32.036Z,0
2018-07-16T02:00:32.534Z,0
2018-07-16T02:01:32.542Z,0
2018-07-16T02:02:32.521Z,0
2018-07-16T02:03:32.576Z,0
2018-07-16T02:04:32.561Z,0
2018-07-16T02:05:32.257Z,0
2018-07-16T02:06:32.256Z,0
2018-07-16T02:07:32.499Z,0
2018-07-16T02:08:32.505Z,0
2018-07-16T02:09:32.514Z,4
2018-07-16T02:10:32.486Z,4
2018-07-16T02:11:32.228Z,4
2018-07-16T02:12:32.221Z,4
2018-07-16T02:13:32.478Z,4
2018-07-16T02:14:32.522Z,4
2018-07-16T02:15:32.478Z,4
2018-07-16T02:16:32.476Z,4
2018-07-16T02:17:32.459Z,4
2018-07-16T02:18:32.448Z,0
2018-07-16T02:19:32.204Z,4
2018-07-16T02:20:32.439Z,4
2018-07-16T02:21:32.431Z,4
2018-07-16T02:22:32.174Z,4
2018-07-16T02:23:32.431Z,4
2018-07-16T02:24:32.415Z,8
2018-07-16T02:25:32.157Z,4
2018-07-16T02:26:32.404Z,8
2018-07-16T02:27:32.148Z,8
2018-07-16T02:28:32.145Z,8
2018-07-16T02:29:32.389Z,8
2018-07-16T02:30:32.394Z,12
2018-07-16T02:31:32.387Z,12
2018-07-16T02:32:32.380Z,12
2018-07-16T02:33:32.383Z,20
2018-07-16T02:34:32.404Z,20
2018-07-16T02:35:32.372Z,24
2018-07-16T02:36:32.372Z,24
2018-07-16T02:37:32.374Z,28
2018-07-16T02:38:32.362Z,32
2018-07-16T02:39:32.355Z,36
2018-07-16T02:40:32.086Z,40
2018-07-16T02:41:32.341Z,44
2018-07-16T02:42:32.335Z,52
2018-07-16T02:43:32.331Z,56
2018-07-16T02:44:32.354Z,64
2018-07-16T02:45:32.320Z,72
2018-07-16T02:46:32.328Z,76
2018-07-16T02:47:32.301Z,84
2018-07-16T02:48:32.308Z,92
2018-07-16T02:49:32.316Z,104
2018-07-16T02:50:32.036Z,112
2018-07-16T02:51:32.044Z,120
2018-07-16T02:52:32.035Z,136
2018-07-16T02:53:32.020Z,144
2018-07-16T02:54:32.277Z,160
2018-07-16T02:55:32.015Z,172
2018-07-16T02:56:32.359Z,188
2018-07-16T02:57:32.001Z,204
2018-07-16T02:58:32.016Z,224
2018-07-16T02:59:32.252Z,240
2018-07-16T03:00:32.239Z,260
2018-07-16T03:01:32.236Z,280
2018-07-16T03:02:32.227Z,296
2018-07-16T03:03:32.229Z,320
2018-07-16T03:04:32.006Z,344
2018-07-16T03:05:32.221Z,368
2018-07-16T03:06:32.231Z,388
2018-07-16T03:07:32.228Z,416
2018-07-16T03:08:32.209Z,440
2018-07-16T03:09:31.690Z,468
2018-07-16T03:10:31.942Z,492
2018-07-16T03:11:32.183Z,524
2018-07-16T03:12:32.188Z,552
2018-07-16T03:13:32.179Z,584
2018-07-16T03:14:32.172Z,612
2018-07-16T03:15:32.159Z,644
2018-07-16T03:16:31.657Z,684
2018-07-16T03:17:32.158Z,716
2018-07-16T03:18:32.154Z,756
2018-07-16T03:19:31.891Z,800
2018-07-16T03:20:31.884Z,832
2018-07-16T03:21:31.879Z,856
2018-07-16T03:22:31.880Z,876
2018-07-16T03:23:31.873Z,900
2018-07-16T03:24:32.120Z,924
2018-07-16T03:25:32.122Z,956
2018-07-16T03:26:31.852Z,984
2018-07-16T03:27:31.855Z,1020
2018-07-16T03:28:32.099Z,1056
2018-07-16T03:29:32.108Z,1092
2018-07-16T03:30:31.845Z,1132
2018-07-16T03:31:32.092Z,1172
2018-07-16T03:32:32.090Z,1228
2018-07-16T03:33:32.070Z,1296
2018-07-16T03:34:31.812Z,1388
2018-07-16T03:35:32.060Z,1496
2018-07-16T03:36:32.062Z,1600
2018-07-16T03:37:32.048Z,1708
2018-07-16T03:38:31.803Z,1844
2018-07-16T03:39:31.790Z,2064
2018-07-16T03:40:32.033Z,2316
2018-07-16T03:41:31.778Z,2564
2018-07-16T03:42:32.034Z,2756
2018-07-16T03:43:31.514Z,2868
2018-07-16T03:44:32.013Z,3008
2018-07-16T03:45:31.759Z,3132
2018-07-16T03:46:31.753Z,3220
2018-07-16T03:47:31.498Z,3348
2018-07-16T03:48:31.999Z,3512
2018-07-16T03:49:31.991Z,3660
2018-07-16T03:50:31.991Z,3768
2018-07-16T03:51:31.982Z,3860
2018-07-16T03:52:31.979Z,4004
2018-07-16T03:53:31.722Z,4132
2018-07-16T03:54:32.062Z,4288
2018-07-16T03:55:31.716Z,4492
2018-07-16T03:56:31.720Z,4632
2018-07-16T03:57:31.716Z,4672
2018-07-16T03:58:31.465Z,4720
2018-07-16T03:59:31.448Z,4880
2018-07-16T04:00:31.949Z,5052
2018-07-16T04:01:31.485Z,5244
2018-07-16T04:02:31.970Z,5464
2018-07-16T04:03:31.691Z,5556
2018-07-16T04:04:31.436Z,5496
2018-07-16T04:05:31.695Z,5540
2018-07-16T04:06:31.939Z,5760
2018-07-16T04:07:31.939Z,5952
2018-07-16T04:08:31.684Z,6244
2018-07-16T04:09:31.680Z,6388
2018-07-16T04:10:31.682Z,6604
2018-07-16T04:11:31.929Z,6824
2018-07-16T04:12:31.681Z,6796
2018-07-16T04:13:31.940Z,6988
2018-07-16T04:14:32.188Z,7272
2018-07-16T04:15:31.681Z,7192
2018-07-16T04:16:31.679Z,7820
2018-07-16T04:17:31.681Z,7928
2018-07-16T04:18:31.680Z,8048
2018-07-16T04:19:31.937Z,8684
2018-07-16T04:20:31.938Z,8296
2018-07-16T04:21:31.936Z,8904
2018-07-16T04:22:31.947Z,8964
2018-07-16T04:23:31.691Z,8948
2018-07-16T04:24:31.947Z,9552
2018-07-16T04:25:31.736Z,9236
2018-07-16T04:26:31.950Z,9536
2018-07-16T04:27:31.957Z,10672
2018-07-16T04:28:31.952Z,10140
2018-07-16T04:29:31.961Z,10528
2018-07-16T04:30:31.986Z,11152
2018-07-16T04:31:31.971Z,10324
2018-07-16T04:32:31.721Z,10756
2018-07-16T04:33:31.982Z,12028
2018-07-16T04:34:31.985Z,11604
2018-07-16T04:35:31.984Z,12352
2018-07-16T04:36:31.992Z,12956
2018-07-16T04:37:31.995Z,11996
2018-07-16T04:38:31.746Z,12476
2018-07-16T04:39:31.755Z,13000
2018-07-16T04:40:31.514Z,12948
2018-07-16T04:41:32.020Z,13856
2018-07-16T04:42:32.023Z,14912
2018-07-16T04:43:32.029Z,14752
2018-07-16T04:44:31.786Z,14208
2018-07-16T04:45:32.043Z,14368
2018-07-16T04:46:32.050Z,15328
2018-07-16T04:47:31.808Z,16384
2018-07-16T04:48:32.063Z,16288
2018-07-16T04:49:32.069Z,15904
2018-07-16T04:50:32.080Z,17344
2018-07-16T04:51:32.141Z,17728
2018-07-16T04:52:32.112Z,16768
2018-07-16T04:53:32.102Z,18208
2018-07-16T04:54:32.128Z,17888
2018-07-16T04:55:31.866Z,16416
2018-07-16T04:56:32.131Z,19328
2018-07-16T04:57:32.142Z,19360
2018-07-16T04:58:32.149Z,17344
2018-07-16T04:59:32.174Z,19296
2018-07-16T05:00:31.920Z,19488
2018-07-16T05:01:32.186Z,19424
2018-07-16T05:02:31.930Z,22080
2018-07-16T05:03:31.940Z,22176
2018-07-16T05:04:32.222Z,20864
2018-07-16T05:05:32.212Z,22048
2018-07-16T05:06:32.219Z,22816
2018-07-16T05:07:31.977Z,21696
2018-07-16T05:08:31.731Z,21344
2018-07-16T05:09:32.285Z,23008
2018-07-16T05:10:32.309Z,23296
2018-07-16T05:11:32.263Z,21600
2018-07-16T05:12:32.282Z,21664
2018-07-16T05:13:32.286Z,23392
2018-07-16T05:14:32.400Z,22496
2018-07-16T05:15:32.329Z,21248
2018-07-16T05:16:32.068Z,23456
2018-07-16T05:17:32.326Z,25248
2018-07-16T05:18:33.292Z,25024
2018-07-16T05:19:32.096Z,26400
2018-07-16T05:20:32.366Z,28224
2018-07-16T05:21:32.117Z,26624
2018-07-16T05:22:32.406Z,25600
2018-07-16T05:23:32.403Z,26912
2018-07-16T05:24:32.407Z,27200
2018-07-16T05:25:32.430Z,27744
2018-07-16T05:26:32.167Z,27232
2018-07-16T05:27:32.443Z,25792
2018-07-16T05:28:32.190Z,27200
2018-07-16T05:29:31.958Z,28672
2018-07-16T05:30:32.466Z,26528
2018-07-16T05:31:32.746Z,26080
2018-07-16T05:32:33.649Z,28704
2018-07-16T05:33:32.510Z,28928
2018-07-16T05:34:32.515Z,27328
2018-07-16T05:35:32.525Z,28896
2018-07-16T05:36:32.542Z,30016
2018-07-16T05:37:32.303Z,28544
2018-07-16T05:38:32.564Z,29888
2018-07-16T05:39:32.584Z,32768
2018-07-16T05:40:32.584Z,32640
2018-07-16T05:41:32.610Z,29216
2018-07-16T05:42:32.617Z,27520
2018-07-16T05:43:32.626Z,30208
2018-07-16T05:44:32.649Z,32288
2018-07-16T05:45:32.654Z,31264
2018-07-16T05:46:32.660Z,31776
2018-07-16T05:47:32.675Z,32864
2018-07-16T05:48:33.452Z,32640
2018-07-16T05:49:32.714Z,32992
2018-07-16T05:50:32.712Z,33696
2018-07-16T05:51:32.468Z,32416
2018-07-16T05:52:32.752Z,28704
2018-07-16T05:53:32.744Z,28960
2018-07-16T05:54:32.755Z,35424
2018-07-16T05:55:32.525Z,38208
2018-07-16T05:56:32.277Z,33696
2018-07-16T05:57:32.795Z,28896
2018-07-16T05:58:32.810Z,31328
2018-07-16T05:59:33.576Z,37472
2018-07-16T06:00:32.576Z,39488
2018-07-16T06:01:32.850Z,36160
2018-07-16T06:02:32.856Z,31616
2018-07-16T06:03:32.867Z,30624
2018-07-16T06:04:32.948Z,35104
2018-07-16T06:05:32.894Z,38720
2018-07-16T06:06:32.901Z,37024
2018-07-16T06:07:32.664Z,34304
2018-07-16T06:08:32.930Z,35168
2018-07-16T06:09:32.687Z,38752
2018-07-16T06:10:32.700Z,41280
2018-07-16T06:11:32.467Z,39872
2018-07-16T06:12:32.983Z,39872
2018-07-16T06:13:32.989Z,42176
2018-07-16T06:14:32.812Z,42240
2018-07-16T06:15:33.016Z,39904
2018-07-16T06:16:32.790Z,37920
2018-07-16T06:17:32.794Z,38176
2018-07-16T06:18:32.802Z,38240
2018-07-16T06:19:33.066Z,36864
2018-07-16T06:20:33.081Z,35712
2018-07-16T06:21:32.850Z,37600
2018-07-16T06:22:33.107Z,37952
2018-07-16T06:23:33.125Z,33536
2018-07-16T06:24:33.133Z,29024
2018-07-16T06:25:33.153Z,28672
2018-07-16T06:26:33.163Z,30080
2018-07-16T06:27:32.675Z,30912
2018-07-16T06:28:32.937Z,31040
2018-07-16T06:29:33.218Z,30304
2018-07-16T06:30:32.968Z,29280
2018-07-16T06:31:33.307Z,28384
2018-07-16T06:32:33.748Z,27040
2018-07-16T06:33:33.010Z,25120
2018-07-16T06:34:33.295Z,22976
2018-07-16T06:35:33.041Z,20480
2018-07-16T06:36:33.300Z,17600
2018-07-16T06:37:33.332Z,15808
2018-07-16T06:38:33.079Z,17248
2018-07-16T06:39:33.233Z,23776
2018-07-16T06:40:34.100Z,33408
2018-07-16T06:41:36.279Z,42784
2018-07-16T06:42:33.394Z,47904
2018-07-16T06:43:33.413Z,49280
2018-07-16T06:44:33.166Z,46560
2018-07-16T06:45:33.186Z,43648
2018-07-16T06:46:32.951Z,42432
2018-07-16T06:47:33.211Z,41376
2018-07-16T06:48:33.516Z,43232
2018-07-16T06:49:33.245Z,58272
2018-07-16T06:50:33.005Z,63040
2018-07-16T06:51:33.269Z,70112
2018-07-16T06:52:33.546Z,77952
2018-07-16T06:53:33.556Z,83968
2018-07-16T06:54:33.315Z,85376
2018-07-16T06:55:33.338Z,82240
2018-07-16T06:56:33.601Z,78400
2018-07-16T06:57:33.367Z,78272
2018-07-16T06:58:33.649Z,80928
2018-07-16T06:59:33.401Z,83936
2018-07-16T07:00:33.676Z,85120
2018-07-16T07:01:33.681Z,81728
2018-07-16T07:02:33.446Z,76160
2018-07-16T07:03:33.463Z,73728
2018-07-16T07:04:33.489Z,77280
2018-07-16T07:05:33.752Z,81696
2018-07-16T07:06:33.785Z,85696
2018-07-16T07:07:33.799Z,88832
2018-07-16T07:08:33.821Z,91744
2018-07-16T07:09:33.579Z,73120
2018-07-16T07:10:33.848Z,78336
2018-07-16T07:11:33.869Z,82880
2018-07-16T07:12:33.869Z,87744
2018-07-16T07:13:33.897Z,90048
2018-07-16T07:14:33.654Z,84480
2018-07-16T07:15:33.927Z,70912
2018-07-16T07:16:33.943Z,58080
2018-07-16T07:17:33.708Z,49120
2018-07-16T07:18:33.985Z,42368
2018-07-16T07:19:33.741Z,44416
2018-07-16T07:20:34.070Z,55680
2018-07-16T07:21:33.780Z,69408
2018-07-16T07:22:34.044Z,80160
2018-07-16T07:23:34.063Z,83616
2018-07-16T07:24:33.828Z,84544
2018-07-16T07:25:34.426Z,88800
2018-07-16T07:26:34.122Z,84768
2018-07-16T07:27:34.145Z,70400
2018-07-16T07:28:34.159Z,54016
2018-07-16T07:29:34.163Z,42464
2018-07-16T07:30:34.217Z,35232
2018-07-16T07:31:33.960Z,32448
2018-07-16T07:32:33.976Z,29216
2018-07-16T07:33:34.232Z,26560
2018-07-16T07:34:34.246Z,28160
2018-07-16T07:35:34.690Z,29536
2018-07-16T07:36:34.286Z,32320
2018-07-16T07:37:34.299Z,35680
2018-07-16T07:38:34.315Z,34912
2018-07-16T07:39:34.076Z,29440
2018-07-16T07:40:34.094Z,22336
2018-07-16T07:41:34.358Z,18848
2018-07-16T07:42:34.377Z,16832
2018-07-16T07:43:34.389Z,16384
2018-07-16T07:44:34.412Z,16000
2018-07-16T07:45:34.422Z,16064
2018-07-16T07:46:34.444Z,17632
2018-07-16T07:47:34.314Z,18944
2018-07-16T07:48:34.492Z,19200
2018-07-16T07:49:34.490Z,20000
2018-07-16T07:50:34.530Z,21632
2018-07-16T07:51:35.155Z,22656
2018-07-16T07:52:34.572Z,24096
2018-07-16T07:53:34.557Z,27136
2018-07-16T07:54:35.383Z,30400
2018-07-16T07:55:34.471Z,32288
2018-07-16T07:57:34.370Z,34592
2018-07-16T07:58:34.649Z,34976
2018-07-16T07:59:34.657Z,34976
2018-07-16T08:00:34.674Z,36608
2018-07-16T08:01:34.437Z,39552
2018-07-16T08:02:34.459Z,42784
2018-07-16T08:03:34.941Z,44864
2018-07-16T08:04:34.233Z,48416
2018-07-16T08:05:34.496Z,52928
2018-07-16T08:06:34.765Z,52832
2018-07-16T08:07:34.774Z,46112
2018-07-16T08:08:34.540Z,37664
2018-07-16T08:09:34.340Z,40288
2018-07-16T08:10:35.442Z,53376
2018-07-16T08:11:34.620Z,61824
2018-07-16T08:12:34.898Z,58912
2018-07-16T08:13:34.954Z,49472
2018-07-16T08:14:34.969Z,47104
2018-07-16T08:15:34.922Z,54304
2018-07-16T08:16:34.725Z,63264
2018-07-16T08:17:34.997Z,64672
2018-07-16T08:18:36.355Z,60576
2018-07-16T08:19:34.998Z,57216
2018-07-16T08:20:35.017Z,60064
2018-07-16T08:21:35.057Z,66528
2018-07-16T08:22:34.779Z,73440
2018-07-16T08:23:35.071Z,79200
2018-07-16T08:24:34.835Z,79584
2018-07-16T08:25:35.382Z,78336
2018-07-16T08:26:36.147Z,81600
2018-07-16T08:27:34.920Z,90976
2018-07-16T08:28:35.131Z,93536
2018-07-16T08:29:34.908Z,88032
2018-07-16T08:30:35.160Z,76672
2018-07-16T08:31:34.968Z,69344
2018-07-16T08:32:35.240Z,63296
2018-07-16T08:33:36.085Z,68512
2018-07-16T08:34:35.013Z,80928
2018-07-16T08:35:35.244Z,89696
2018-07-16T08:36:35.012Z,90432
2018-07-16T08:37:35.326Z,85344
2018-07-16T08:38:35.027Z,80832
2018-07-16T08:39:35.319Z,74880
2018-07-16T08:40:35.361Z,67904
2018-07-16T08:41:35.665Z,67392
2018-07-16T08:42:35.093Z,74432
2018-07-16T08:43:35.103Z,80000
2018-07-16T08:44:35.120Z,83680
2018-07-16T08:45:35.377Z,90816
2018-07-16T08:46:35.420Z,99104
2018-07-16T08:47:35.396Z,97376
2018-07-16T08:48:35.411Z,85728
2018-07-16T08:49:34.926Z,71712
2018-07-16T08:50:35.445Z,67904
2018-07-16T08:51:35.501Z,76768
2018-07-16T08:52:35.229Z,85152
2018-07-16T08:53:35.551Z,84544
2018-07-16T08:54:35.503Z,77344
2018-07-16T08:55:35.510Z,71872
2018-07-16T08:56:35.539Z,80864
2018-07-16T08:57:35.546Z,94848
2018-07-16T08:58:35.575Z,97472
2018-07-16T08:59:35.573Z,61568
2018-07-16T09:00:35.333Z,17792
2018-07-16T09:01:35.609Z,9188
2018-07-16T09:02:35.614Z,9044
2018-07-16T09:03:35.634Z,9112
2018-07-16T09:04:35.644Z,10420
2018-07-16T09:05:35.426Z,10632
2018-07-16T09:06:35.671Z,10536
2018-07-16T09:07:35.433Z,10172
2018-07-16T09:08:35.703Z,9272
2018-07-16T09:09:35.198Z,9112
2018-07-16T09:11:38.281Z,9300
2018-07-16T09:12:35.730Z,9528
2018-07-16T09:13:36.290Z,9600
2018-07-16T09:14:35.764Z,9832
2018-07-16T09:15:35.523Z,10360
2018-07-16T09:16:35.524Z,10884
2018-07-16T09:17:35.790Z,11628
2018-07-16T09:18:35.542Z,12204
2018-07-16T09:19:35.797Z,12956
2018-07-16T09:20:35.812Z,13684
2018-07-16T09:21:35.565Z,13908
2018-07-16T09:22:35.826Z,13496
2018-07-16T09:23:35.616Z,12956
2018-07-16T09:24:35.838Z,12520
2018-07-16T09:25:35.871Z,12264
2018-07-16T09:26:35.877Z,11668
2018-07-16T09:27:35.857Z,10740
2018-07-16T09:28:35.865Z,9940
2018-07-16T09:29:35.622Z,9564
2018-07-16T09:30:35.886Z,9384
2018-07-16T09:31:35.888Z,9284
2018-07-16T09:32:35.404Z,9216
2018-07-16T09:33:35.647Z,9208
2018-07-16T09:34:35.661Z,9212
2018-07-16T09:35:35.659Z,9140
2018-07-16T09:36:35.683Z,9092
2018-07-16T09:37:35.673Z,9132
2018-07-16T09:38:35.819Z,9160
2018-07-16T09:39:35.885Z,9148
2018-07-16T09:40:35.935Z,9120
2018-07-16T09:41:35.691Z,9064
2018-07-16T09:42:35.443Z,9028
2018-07-16T09:43:35.967Z,9080
2018-07-16T09:44:36.419Z,9120
2018-07-16T09:45:35.961Z,9136
2018-07-16T09:46:35.967Z,9092
2018-07-16T09:47:35.972Z,9056
2018-07-16T09:48:36.044Z,9052
2018-07-16T09:49:35.977Z,9020
2018-07-16T09:50:35.986Z,9008
2018-07-16T09:51:36.001Z,8984
2018-07-16T09:52:35.996Z,8980
2018-07-16T09:53:36.003Z,8992
2018-07-16T09:54:35.752Z,9024
2018-07-16T09:55:35.760Z,8988
2018-07-16T09:56:35.919Z,8912
2018-07-16T09:57:35.763Z,8840
2018-07-16T09:58:36.016Z,8776
2018-07-16T09:59:36.027Z,8708
2018-07-16T10:00:36.052Z,8604
2018-07-16T10:01:36.021Z,8536
2018-07-16T10:02:35.785Z,8480
2018-07-16T10:03:36.032Z,8496
2018-07-16T10:04:36.065Z,8576
2018-07-16T10:05:36.093Z,8684
2018-07-16T10:06:36.052Z,8904
2018-07-16T10:07:36.058Z,9012
2018-07-16T10:08:36.053Z,9036
2018-07-16T10:09:35.872Z,8728
2018-07-16T10:10:36.182Z,8876
2018-07-16T10:11:35.608Z,8748
2018-07-16T10:12:35.818Z,8848
2018-07-16T10:13:36.067Z,8916
2018-07-16T10:14:36.085Z,8988
2018-07-16T10:15:36.081Z,9056
2018-07-16T10:16:36.075Z,9016
2018-07-16T10:17:36.075Z,8984
2018-07-16T10:18:36.073Z,8896
2018-07-16T10:19:36.080Z,8844
2018-07-16T10:20:36.629Z,9052
2018-07-16T10:21:36.086Z,9108
2018-07-16T10:22:35.849Z,9096
2018-07-16T10:23:36.096Z,8872
2018-07-16T10:24:36.102Z,8548
2018-07-16T10:25:35.591Z,8308
2018-07-16T10:26:36.148Z,8152
2018-07-16T10:27:36.119Z,8052
2018-07-16T10:28:35.851Z,7844
2018-07-16T10:29:36.108Z,7780
2018-07-16T10:30:35.859Z,7728
2018-07-16T10:31:36.114Z,7716
2018-07-16T10:32:35.874Z,7704
2018-07-16T10:33:36.143Z,7728
2018-07-16T10:34:36.136Z,7752
2018-07-16T10:35:35.902Z,7788
2018-07-16T10:36:35.887Z,7772
2018-07-16T10:37:35.879Z,7784
2018-07-16T10:38:35.904Z,7776
2018-07-16T10:39:36.545Z,7748
2018-07-16T10:40:36.161Z,7788
2018-07-16T10:41:36.143Z,8068
2018-07-16T10:42:35.900Z,8296
2018-07-16T10:43:36.148Z,8128
2018-07-16T10:44:35.910Z,8072
2018-07-16T10:45:35.927Z,8156
2018-07-16T10:46:36.170Z,8120
2018-07-16T10:47:36.164Z,7912
2018-07-16T10:48:36.166Z,7840
2018-07-16T10:49:36.357Z,7864
2018-07-16T10:50:36.174Z,8016
2018-07-16T10:51:36.183Z,8100
2018-07-16T10:52:35.931Z,8108
2018-07-16T10:53:36.218Z,7888
2018-07-16T10:54:36.190Z,7960
2018-07-16T10:55:36.191Z,8328
2018-07-16T10:56:36.211Z,8568
2018-07-16T10:57:36.202Z,8964
2018-07-16T10:58:36.199Z,9492
2018-07-16T10:59:36.216Z,9824
2018-07-16T11:00:36.234Z,9948
2018-07-16T11:01:36.225Z,10244
2018-07-16T11:02:36.213Z,10124
2018-07-16T11:03:36.243Z,9976
2018-07-16T11:04:36.226Z,9580
2018-07-16T11:05:36.124Z,9204
2018-07-16T11:06:36.226Z,8872
2018-07-16T11:07:36.233Z,8660
2018-07-16T11:08:36.229Z,9068
2018-07-16T11:09:36.255Z,9428
2018-07-16T11:10:36.245Z,9496
2018-07-16T11:11:36.238Z,9468
2018-07-16T11:12:36.257Z,9704
2018-07-16T11:13:36.258Z,9048
2018-07-16T11:14:36.004Z,8500
2018-07-16T11:15:36.256Z,8076
2018-07-16T11:16:36.256Z,7840
2018-07-16T11:17:36.008Z,7840
2018-07-16T11:18:36.024Z,7700
2018-07-16T11:19:36.018Z,7688
2018-07-16T11:20:35.792Z,7692
2018-07-16T11:21:36.319Z,7444
2018-07-16T11:22:36.575Z,7124
2018-07-16T11:23:36.288Z,7072
2018-07-16T11:24:36.296Z,7008
2018-07-16T11:25:36.292Z,7084
2018-07-16T11:26:36.311Z,7056
2018-07-16T11:27:36.045Z,6952
2018-07-16T11:28:36.303Z,7124
2018-07-16T11:29:36.299Z,7148
2018-07-16T11:30:36.316Z,7076
2018-07-16T11:31:36.305Z,6984
2018-07-16T11:32:36.334Z,6940
2018-07-16T11:33:36.597Z,6908
2018-07-16T11:34:36.314Z,6920
2018-07-16T11:35:36.752Z,7016
2018-07-16T11:36:36.318Z,7156
2018-07-16T11:37:36.325Z,7268
2018-07-16T11:38:36.076Z,7392
2018-07-16T11:39:36.099Z,7420
2018-07-16T11:40:36.351Z,7392
2018-07-16T11:41:36.082Z,7416
2018-07-16T11:42:36.341Z,7408
2018-07-16T11:43:36.352Z,7464
2018-07-16T11:44:36.376Z,7704
2018-07-16T11:45:36.366Z,7708
2018-07-16T11:46:36.362Z,7596
2018-07-16T11:47:36.106Z,7760
2018-07-16T11:48:35.893Z,7952
2018-07-16T11:49:36.344Z,7856
2018-07-16T11:50:36.130Z,7688
2018-07-16T11:51:36.112Z,7632
2018-07-16T11:52:36.131Z,7368
2018-07-16T11:53:36.377Z,7092
2018-07-16T11:54:36.382Z,7096
2018-07-16T11:55:36.387Z,7204
2018-07-16T11:56:35.880Z,7328
2018-07-16T11:57:36.134Z,7208
2018-07-16T11:58:36.389Z,7068
2018-07-16T11:59:36.392Z,7328
2018-07-16T12:00:36.397Z,7512
2018-07-16T12:01:36.424Z,7528
2018-07-16T12:02:36.151Z,7400
2018-07-16T12:03:37.004Z,7276
2018-07-16T12:04:36.409Z,7256
2018-07-16T12:05:36.428Z,7136
2018-07-16T12:06:36.421Z,7056
2018-07-16T12:07:36.415Z,6992
2018-07-16T12:08:36.418Z,6960
2018-07-16T12:09:36.423Z,6992
2018-07-16T12:10:36.434Z,7064
2018-07-16T12:11:36.443Z,7172
2018-07-16T12:12:36.615Z,7280
2018-07-16T12:13:36.439Z,7264
2018-07-16T12:14:36.192Z,7316
2018-07-16T12:15:36.190Z,7344
2018-07-16T12:16:36.192Z,7380
2018-07-16T12:17:36.201Z,7324
2018-07-16T12:18:36.470Z,7236
2018-07-16T12:19:36.277Z,7268
2018-07-16T12:20:36.581Z,7496
2018-07-16T12:21:36.207Z,7800
2018-07-16T12:22:36.463Z,8536
2018-07-16T12:23:36.229Z,8744
2018-07-16T12:24:36.219Z,8796
2018-07-16T12:25:36.485Z,8780
2018-07-16T12:26:36.480Z,8660
2018-07-16T12:27:36.236Z,8396
2018-07-16T12:28:36.491Z,8000
2018-07-16T12:29:36.502Z,7672
2018-07-16T12:30:36.499Z,7332
2018-07-16T12:31:36.510Z,6996
2018-07-16T12:32:36.508Z,6848
2018-07-16T12:33:36.277Z,6756
2018-07-16T12:34:36.258Z,6488
2018-07-16T12:35:36.276Z,6412
2018-07-16T12:36:36.265Z,6448
2018-07-16T12:37:36.520Z,6604
2018-07-16T12:38:36.530Z,6740
2018-07-16T12:39:36.276Z,6964
2018-07-16T12:40:36.551Z,7052
2018-07-16T12:41:37.258Z,7200
2018-07-16T12:42:36.277Z,7208
2018-07-16T12:43:36.576Z,7276
2018-07-16T12:44:36.323Z,7364
2018-07-16T12:45:36.341Z,7444
2018-07-16T12:46:36.607Z,7288
2018-07-16T12:47:36.581Z,7312
2018-07-16T12:48:36.578Z,7308
2018-07-16T12:49:36.557Z,7084
2018-07-16T12:50:36.578Z,6928
2018-07-16T12:51:36.323Z,6948
2018-07-16T12:52:36.317Z,6952
2018-07-16T12:53:36.064Z,6900
2018-07-16T12:54:36.321Z,6800
2018-07-16T12:55:37.061Z,6680
2018-07-16T12:56:36.333Z,6700
2018-07-16T12:57:36.334Z,6612
2018-07-16T12:58:36.353Z,6472
2018-07-16T12:59:36.642Z,6352
2018-07-16T13:00:36.598Z,6096
2018-07-16T13:01:36.601Z,6004
2018-07-16T13:02:36.864Z,5944
2018-07-16T13:03:36.611Z,5876
2018-07-16T13:04:36.372Z,5856
2018-07-16T13:05:36.376Z,5816
2018-07-16T13:06:36.615Z,5768
2018-07-16T13:07:36.622Z,5896
2018-07-16T13:08:36.642Z,6144
2018-07-16T13:09:36.645Z,6204
2018-07-16T13:10:36.625Z,6264
2018-07-16T13:11:36.672Z,6416
2018-07-16T13:12:36.650Z,6632
2018-07-16T13:13:36.638Z,6820
2018-07-16T13:14:36.649Z,7060
2018-07-16T13:15:36.648Z,7000
2018-07-16T13:16:36.665Z,6928
2018-07-16T13:17:36.653Z,7056
2018-07-16T13:18:36.668Z,7184
2018-07-16T13:19:36.427Z,7188
2018-07-16T13:20:36.690Z,6940
2018-07-16T13:21:36.695Z,6672
2018-07-16T13:22:36.680Z,6600
2018-07-16T13:23:36.719Z,6460
2018-07-16T13:24:36.671Z,6260
2018-07-16T13:25:36.677Z,6136
2018-07-16T13:26:36.426Z,6108
2018-07-16T13:27:36.683Z,6076
2018-07-16T13:28:36.689Z,6100